^^
Grace C. Lehan Memorial Weather Station Historical Data
Daily Summary for August 5, 2021 Units:  Metric    English   Both
Daily Weekly Monthly Yearly
  High: Low: Average:
Temperature: 33.7 °C 16.8 °C 26.4 °C
Dew Point: 21.8 °C 16.2 °C 19.3 °C
Humidity: 97% 45.8% 68%
Wind Speed: 7.2km/h 0km/h 1.3km/h
Wind Gust: 22.5km/h - -
Wind- - WSW
Pressure: 1011.7 hPa 1008.4 hPa -
Precipitation: 0 mm    
 
 
Tabular Data for August 5, 2021
Time Temperature Dew Point Pressure Wind Wind Speed Wind Gust Humidity Rainfall Rate (Hourly) solar
00:04 19.6 °C 18.4 °C 1010.7 hPa Calm     93% 0 mm 0 W/m2
00:09 19.5 °C 18.3 °C 1010.7 hPa Calm     93% 0 mm 0 W/m2
00:14 19.4 °C 18.3 °C 1010.7 hPa Calm     93% 0 mm 0 W/m2
00:19 19.4 °C 18.2 °C 1011.1 hPa Calm     93% 0 mm 0 W/m2
00:24 19.3 °C 18.2 °C 1011.1 hPa Calm     93% 0 mm 0 W/m2
00:29 19.2 °C 18.1 °C 1011.1 hPa Calm     93% 0 mm 0 W/m2
00:34 19.2 °C 18 °C 1011.1 hPa Calm     93% 0 mm 0 W/m2
00:39 19.1 °C 17.9 °C 1011.1 hPa Calm     93% 0 mm 0 W/m2
00:44 19.1 °C 17.9 °C 1011.1 hPa Calm     93% 0 mm 0 W/m2
00:49 19 °C 17.8 °C 1011.1 hPa Calm     93% 0 mm 0 W/m2
00:54 18.9 °C 17.9 °C 1011.1 hPa Calm     93.8% 0 mm 0 W/m2
00:56 18.9 °C 17.9 °C 1011.1 hPa Calm     94% 0 mm 0 W/m2
01:00 18.8 °C 17.8 °C 1010.7 hPa Calm     94% 0 mm 0 W/m2
01:30 18.5 °C 17.5 °C 1011.1 hPa Calm     94% 0 mm 0 W/m2
02:00 18.2 °C 17.4 °C 1010.7 hPa Calm     95% 0 mm 0 W/m2
02:30 17.7 °C 16.7 °C 1010.7 hPa Calm     94% 0 mm 0 W/m2
03:00 17.4 °C 16.7 °C 1010.7 hPa Calm     95% 0 mm 0 W/m2
03:30 17.2 °C 16.4 °C 1010.7 hPa Calm     95% 0 mm 0 W/m2
04:04 16.9 °C 16.2 °C 1011.1 hPa Calm     95% 0 mm 0 W/m2
04:09 16.9 °C 16.2 °C 1011.1 hPa Calm     95.1% 0 mm 0 W/m2
04:14 16.9 °C 16.3 °C 1011.1 hPa Calm     96% 0 mm 0 W/m2
04:19 16.9 °C 16.3 °C 1010.7 hPa Calm     96% 0 mm 0 W/m2
04:24 16.9 °C 16.3 °C 1011.1 hPa Calm     96% 0 mm 0 W/m2
04:29 16.9 °C 16.3 °C 1011.1 hPa Calm     96% 0 mm 0 W/m2
04:34 16.9 °C 16.3 °C 1011.1 hPa Calm     96% 0 mm 0 W/m2
04:39 16.9 °C 16.3 °C 1010.7 hPa Calm     96% 0 mm 0 W/m2
04:44 16.9 °C 16.3 °C 1011.1 hPa Calm     96% 0 mm 0 W/m2
04:49 16.9 °C 16.3 °C 1011.1 hPa Calm     96% 0 mm 0 W/m2
04:54 16.9 °C 16.3 °C 1011.1 hPa Calm     96% 0 mm 0 W/m2
04:59 16.9 °C 16.3 °C 1011.1 hPa Calm     96% 0 mm 0 W/m2
05:04 16.9 °C 16.3 °C 1011.1 hPa Calm     96% 0 mm 0 W/m2
05:09 16.9 °C 16.3 °C 1011.1 hPa Calm     96% 0 mm 0 W/m2
05:14 16.9 °C 16.3 °C 1011.4 hPa Calm     96% 0 mm 0 W/m2
05:19 16.9 °C 16.3 °C 1011.4 hPa Calm     96% 0 mm 0 W/m2
05:24 16.9 °C 16.3 °C 1011.4 hPa Calm     96% 0 mm 5 W/m2
05:29 16.9 °C 16.3 °C 1011.4 hPa Calm     96% 0 mm 5 W/m2
05:34 16.9 °C 16.2 °C 1011.4 hPa Calm     96% 0 mm 7 W/m2
05:38 16.8 °C 16.2 °C 1011.4 hPa Calm     96% 0 mm 11 W/m2
06:00 16.8 °C 16.2 °C 1011.4 hPa Calm     96% 0 mm 16 W/m2
06:30 17.1 °C 16.4 °C 1011.4 hPa Calm     96% 0 mm 41 W/m2
07:00 17.4 °C 16.9 °C 1011.4 hPa Calm     97% 0 mm 56 W/m2
07:30 18.5 °C 18 °C 1011.4 hPa Calm     97% 0 mm 125 W/m2
08:04 20.9 °C 20.4 °C 1011.4 hPa Calm     97% 0 mm 429 W/m2
08:09 21.2 °C 20.7 °C 1011.4 hPa Calm     97% 0 mm 450 W/m2
08:14 21.7 °C 20.9 °C 1011.7 hPa West 0.2 km/h 4.8 km/h 95.3% 0 mm 469 W/m2
08:19 22.3 °C 20.9 °C 1011.7 hPa Calm   4.8 km/h 91.8% 0 mm 487 W/m2
08:24 22.9 °C 20.7 °C 1011.7 hPa Calm   4.8 km/h 87.8% 0 mm 501 W/m2
08:29 23.4 °C 20.8 °C 1011.4 hPa Calm   4.8 km/h 85.1% 0 mm 515 W/m2
08:34 24.1 °C 21.2 °C 1011.4 hPa Calm   4.8 km/h 83.8% 0 mm 527 W/m2
08:39 24.7 °C 20.9 °C 1011.4 hPa Calm     79.8% 0 mm 545 W/m2
08:44 25.1 °C 20.7 °C 1011.4 hPa Calm     76.6% 0 mm 561 W/m2
08:49 25.4 °C 20.8 °C 1011.4 hPa Calm     75.7% 0 mm 575 W/m2
08:54 25.7 °C 20.7 °C 1011.4 hPa Calm     74% 0 mm 585 W/m2
08:59 25.9 °C 20.9 °C 1011.1 hPa Calm     73.9% 0 mm 596 W/m2
09:04 26.1 °C 20.8 °C 1011.1 hPa Calm   1.6 km/h 72.4% 0 mm 612 W/m2
09:09 26.3 °C 20.8 °C 1011.1 hPa Calm   1.6 km/h 72% 0 mm 624 W/m2
09:14 26.6 °C 21.1 °C 1011.1 hPa Calm   1.6 km/h 71.8% 0 mm 640 W/m2
09:19 26.8 °C 21 °C 1011.1 hPa West 0.2 km/h 3.2 km/h 70.4% 0 mm 654 W/m2
09:24 27.1 °C 21.1 °C 1011.1 hPa Calm   3.2 km/h 70.1% 0 mm 668 W/m2
09:29 27.2 °C 20.9 °C 1011.1 hPa Calm   3.2 km/h 68.6% 0 mm 680 W/m2
09:34 27.4 °C 21.1 °C 1011.1 hPa Calm   3.2 km/h 68.5% 0 mm 691 W/m2
09:39 27.6 °C 21.3 °C 1011.1 hPa Calm     68.5% 0 mm 705 W/m2
09:44 27.9 °C 21.6 °C 1011.1 hPa Calm     68.4% 0 mm 721 W/m2
09:49 28.3 °C 21.8 °C 1010.7 hPa Calm     67.6% 0 mm 735 W/m2
09:54 28.7 °C 21.4 °C 1010.7 hPa WSW 0.2 km/h 3.2 km/h 64.7% 0 mm 749 W/m2
09:59 29 °C 21.4 °C 1010.7 hPa WSW 0.3 km/h 3.2 km/h 63.8% 0 mm 759 W/m2
10:04 29.2 °C 21.1 °C 1010.7 hPa WSW 1 km/h 8 km/h 61.5% 0 mm 775 W/m2
10:09 29.4 °C 21.5 °C 1010.7 hPa WSW 1.9 km/h 16.1 km/h 62.2% 0 mm 786 W/m2
10:14 29.8 °C 21.4 °C 1010.4 hPa West 0.2 km/h 16.1 km/h 61% 0 mm 798 W/m2
10:19 30 °C 20.8 °C 1010.4 hPa SW 4.5 km/h 16.1 km/h 57.9% 0 mm 803 W/m2
10:24 30.1 °C 20.5 °C 1010.4 hPa SW 1.9 km/h 16.1 km/h 56.4% 0 mm 821 W/m2
10:29 30.3 °C 20.9 °C 1010.4 hPa WSW 2.7 km/h 16.1 km/h 57.1% 0 mm 830 W/m2
10:34 30.5 °C 20.8 °C 1010.4 hPa WSW 2.4 km/h 16.1 km/h 56.3% 0 mm 840 W/m2
10:39 30.7 °C 20.9 °C 1010.4 hPa WSW 1.4 km/h 16.1 km/h 56.1% 0 mm 849 W/m2
10:44 30.8 °C 20.5 °C 1010.4 hPa SW 2.7 km/h 16.1 km/h 54.4% 0 mm 856 W/m2
10:49 30.8 °C 20.9 °C 1010.4 hPa SW 2.1 km/h 16.1 km/h 55.6% 0 mm 872 W/m2
10:54 31 °C 21.2 °C 1010.4 hPa WSW 1.3 km/h 16.1 km/h 55.8% 0 mm 875 W/m2
10:59 31.2 °C 20.8 °C 1010.4 hPa WSW 1.6 km/h 16.1 km/h 54.3% 0 mm 877 W/m2
11:04 31.2 °C 21.2 °C 1010.4 hPa WSW 1.6 km/h 16.1 km/h 55.1% 0 mm 882 W/m2
11:09 31.4 °C 20.9 °C 1010.4 hPa WSW 0.8 km/h 8 km/h 54% 0 mm 900 W/m2
11:14 31.5 °C 21.2 °C 1010.4 hPa WSW 1.4 km/h 8 km/h 54.3% 0 mm 900 W/m2
11:19 31.6 °C 20.8 °C 1010.4 hPa WSW 3.4 km/h 9.7 km/h 52.9% 0 mm 909 W/m2
11:24 31.7 °C 21.2 °C 1010.4 hPa WSW 1.6 km/h 9.7 km/h 53.9% 0 mm 914 W/m2
11:29 32 °C 21.5 °C 1010.4 hPa WSW 2.9 km/h 9.7 km/h 53.9% 0 mm 916 W/m2
11:34 32.2 °C 21.5 °C 1010 hPa West 1.6 km/h 9.7 km/h 53.3% 0 mm 925 W/m2
11:39 32.3 °C 21.6 °C 1010.4 hPa WSW 2.4 km/h 9.7 km/h 53.2% 0 mm 926 W/m2
11:44 32.4 °C 21.2 °C 1010 hPa SW 2.6 km/h 9.7 km/h 51.7% 0 mm 930 W/m2
11:49 32.2 °C 20.6 °C 1010 hPa SW 2.7 km/h 9.7 km/h 50.3% 0 mm 932 W/m2
11:53 32 °C 20.9 °C 1010 hPa SW 2.3 km/h 9.7 km/h 52% 0 mm 937 W/m2
11:59 32.1 °C 20.9 °C 1009.7 hPa SW 1.9 km/h 16.1 km/h 51.9% 0 mm 940 W/m2
12:04 31.8 °C 21.1 °C 1009.7 hPa SSW 3.2 km/h 3.2 km/h 53% 0 mm 942 W/m2
12:09 31.8 °C 20.9 °C 1009.7 hPa SSW 3.1 km/h 8 km/h 52.5% 0 mm 947 W/m2
12:14 31.8 °C 20.8 °C 1009.7 hPa SW 2.7 km/h 9.7 km/h 52.1% 0 mm 947 W/m2
12:19 31.8 °C 21.1 °C 1009.7 hPa WSW 3.5 km/h 17.7 km/h 53.2% 0 mm 953 W/m2
12:24 31.8 °C 20.9 °C 1009.7 hPa SW 3.7 km/h 17.7 km/h 52.7% 0 mm 954 W/m2
12:29 31.8 °C 21.3 °C 1009.7 hPa SW 2.7 km/h 17.7 km/h 53.6% 0 mm 962 W/m2
12:34 32 °C 21.4 °C 1009.7 hPa SW 4.2 km/h 17.7 km/h 53.5% 0 mm 963 W/m2
12:39 32.2 °C 21.3 °C 1009.7 hPa SW 4.2 km/h 16.1 km/h 52.8% 0 mm 965 W/m2
12:44 32.2 °C 20.6 °C 1009.7 hPa SW 4.7 km/h 16.1 km/h 50.4% 0 mm 970 W/m2
12:49 32.2 °C 20.7 °C 1009.7 hPa SW 3.9 km/h 16.1 km/h 50.8% 0 mm 965 W/m2
12:54 32.1 °C 20.7 °C 1009.7 hPa WSW 3.2 km/h 16.1 km/h 51.1% 0 mm 963 W/m2
12:59 32.2 °C 21 °C 1009.4 hPa WSW 3.2 km/h 16.1 km/h 51.6% 0 mm 970 W/m2
13:04 32.2 °C 20.9 °C 1009.4 hPa SW 3.1 km/h 16.1 km/h 51.2% 0 mm 970 W/m2
13:09 32.3 °C 20.9 °C 1009.4 hPa West 3.7 km/h 14.5 km/h 51.1% 0 mm 967 W/m2
13:14 32.4 °C 20.7 °C 1009.4 hPa SW 1.6 km/h 14.5 km/h 50.1% 0 mm 969 W/m2
13:19 32.4 °C 20.5 °C 1009.4 hPa SW 4.3 km/h 14.5 km/h 49.6% 0 mm 967 W/m2
13:24 32.4 °C 20.5 °C 1009 hPa SW 3.9 km/h 14.5 km/h 49.4% 0 mm 960 W/m2
13:29 32.5 °C 20.4 °C 1009 hPa SW 3.9 km/h 14.5 km/h 48.9% 0 mm 949 W/m2
13:34 32.6 °C 20.7 °C 1009 hPa SW 3.5 km/h 14.5 km/h 49.5% 0 mm 939 W/m2
13:39 32.7 °C 20.6 °C 1009 hPa SW 4.2 km/h 11.3 km/h 49.1% 0 mm 965 W/m2
13:44 32.8 °C 20.6 °C 1009 hPa SW 3.7 km/h 16.1 km/h 48.7% 0 mm 947 W/m2
13:48 32.8 °C 20.8 °C 1009 hPa WSW 7.2 km/h 22.5 km/h 49.4% 0 mm 870 W/m2
14:00 32.5 °C 20.7 °C 1008.7 hPa SW 4.8 km/h 22.5 km/h 50% 0 mm 891 W/m2
14:30 32.7 °C 20.9 °C 1008.7 hPa SW 3.2 km/h 14.5 km/h 50% 0 mm 894 W/m2
15:00 32.9 °C 21.1 °C 1008.7 hPa SW 3.2 km/h 16.1 km/h 50% 0 mm 858 W/m2
15:30 33.7 °C 20.8 °C 1008.4 hPa SW 3.2 km/h 19.3 km/h 47% 0 mm 804 W/m2
16:04 33.7 °C 21.3 °C 1008.4 hPa West 4.3 km/h 8 km/h 48.5% 0 mm 573 W/m2
16:09 33.7 °C 20.8 °C 1008.4 hPa West 3.5 km/h 12.9 km/h 47% 0 mm 552 W/m2
16:14 33.6 °C 20.5 °C 1008.4 hPa West 4.5 km/h 16.1 km/h 46.5% 0 mm 411 W/m2
16:16 33.4 °C 20.2 °C 1008.4 hPa West 3.1 km/h 16.1 km/h 45.8% 0 mm 162 W/m2
16:30 32.9 °C 20.2 °C 1008.4 hPa West 3.2 km/h 16.1 km/h 47% 0 mm 284 W/m2
17:00 32.7 °C 19.6 °C 1008.4 hPa SW 3.2 km/h 16.1 km/h 46% 0 mm 118 W/m2
17:30 32.6 °C 20.1 °C 1008.4 hPa SW 3.2 km/h 11.3 km/h 48% 0 mm 84 W/m2
18:00 32 °C 19.9 °C 1008.4 hPa SW 3.2 km/h 14.5 km/h 49% 0 mm 70 W/m2
18:30 32.1 °C 19.7 °C 1008.7 hPa SW 1.6 km/h 12.9 km/h 48% 0 mm 82 W/m2
19:00 31.7 °C 19.7 °C 1009 hPa WSW 1.6 km/h 11.3 km/h 49% 0 mm 52 W/m2
19:30 31.1 °C 19.5 °C 1009.4 hPa WSW 1.6 km/h 11.3 km/h 50% 0 mm 41 W/m2
20:04 30.1 °C 19.2 °C 1009.7 hPa SW 2.3 km/h 6.4 km/h 52% 0 mm 9 W/m2
20:09 30 °C 19.1 °C 1009.7 hPa SW 1.4 km/h 8 km/h 52% 0 mm 9 W/m2
20:14 29.8 °C 18.9 °C 1009.7 hPa Calm   8 km/h 52% 0 mm 5 W/m2
20:19 29.7 °C 18.9 °C 1010 hPa SW 0.2 km/h 8 km/h 52.3% 0 mm 0 W/m2
20:24 29.6 °C 18.9 °C 1010 hPa Calm   8 km/h 53% 0 mm 0 W/m2
20:29 29.4 °C 18.8 °C 1010 hPa Calm   8 km/h 53% 0 mm 0 W/m2
20:34 29.3 °C 18.7 °C 1010 hPa Calm   8 km/h 53.2% 0 mm 0 W/m2
20:39 29.1 °C 18.8 °C 1010.4 hPa Calm     53.8% 0 mm 0 W/m2
20:44 28.9 °C 18.7 °C 1010.4 hPa Calm     54% 0 mm 0 W/m2
20:49 28.8 °C 18.6 °C 1010.4 hPa Calm     54.1% 0 mm 0 W/m2
20:54 28.7 °C 18.7 °C 1010.4 hPa Calm     55% 0 mm 0 W/m2
20:59 28.5 °C 18.6 °C 1010.4 hPa SW 0.3 km/h 6.4 km/h 55% 0 mm 0 W/m2
21:04 28.3 °C 18.7 °C 1010.7 hPa SW 0.2 km/h 6.4 km/h 55.8% 0 mm 0 W/m2
21:09 28.2 °C 18.7 °C 1010.7 hPa SW 1.8 km/h 9.7 km/h 56.3% 0 mm 0 W/m2
21:14 28.1 °C 18.7 °C 1010.7 hPa Calm   9.7 km/h 57% 0 mm 0 W/m2
21:19 27.9 °C 18.7 °C 1011.1 hPa SW 1.1 km/h 9.7 km/h 57.3% 0 mm 0 W/m2
21:24 27.7 °C 18.7 °C 1011.1 hPa SW 1.8 km/h 9.7 km/h 58% 0 mm 0 W/m2
21:29 27.6 °C 18.6 °C 1011.1 hPa SW 1.1 km/h 9.7 km/h 58% 0 mm 0 W/m2
21:34 27.5 °C 18.5 °C 1011.1 hPa SW 0.6 km/h 9.7 km/h 58% 0 mm 0 W/m2
21:39 27.4 °C 18.4 °C 1011.1 hPa SW 0.8 km/h 6.4 km/h 58% 0 mm 0 W/m2
21:44 27.3 °C 18.3 °C 1011.1 hPa SW 0.8 km/h 6.4 km/h 58% 0 mm 0 W/m2
21:49 27.2 °C 18.2 °C 1011.1 hPa Calm   6.4 km/h 58% 0 mm 0 W/m2
21:54 27.2 °C 18.2 °C 1011.4 hPa Calm   6.4 km/h 58.3% 0 mm 0 W/m2
21:59 27.1 °C 18.4 °C 1011.4 hPa Calm   6.4 km/h 59% 0 mm 0 W/m2
22:04 26.9 °C 18.3 °C 1011.4 hPa Calm   6.4 km/h 59% 0 mm 0 W/m2
22:09 26.9 °C 18.2 °C 1011.4 hPa Calm     59% 0 mm 0 W/m2
22:14 26.8 °C 18.1 °C 1011.7 hPa Calm     59% 0 mm 0 W/m2
22:18 26.7 °C 18.3 °C 1011.7 hPa Calm     60% 0 mm 0 W/m2
22:30 26.4 °C 18.1 °C 1011.4 hPa Calm     60% 0 mm 0 W/m2
23:00 25.8 °C 17.9 °C 1011.7 hPa Calm   3.2 km/h 62% 0 mm 0 W/m2
23:30 25.2 °C 17.6 °C 1011.4 hPa Calm     63% 0 mm 0 W/m2
Hartford County Weather
Compliments of Weather Underground - 4 mb